createdAt,value
2018-02-08T00:00:42.128Z,18.83
2018-02-08T00:03:11.963Z,18.92
2018-02-08T00:05:41.792Z,18.95
2018-02-08T00:08:11.636Z,16.77
2018-02-08T00:10:41.590Z,19.12
2018-02-08T00:13:11.188Z,19.33
2018-02-08T00:15:41.004Z,19.60
2018-02-08T00:18:10.830Z,18.27
2018-02-08T00:20:40.690Z,18.77
2018-02-08T00:23:10.541Z,19.17
2018-02-08T00:25:40.405Z,19.85
2018-02-08T00:28:10.203Z,18.60
2018-02-08T00:30:40.053Z,20.08
2018-02-08T00:33:09.893Z,19.67
2018-02-08T00:35:39.754Z,19.50
2018-02-08T00:38:09.583Z,19.73
2018-02-08T00:40:39.438Z,19.05
2018-02-08T00:43:09.281Z,18.95
2018-02-08T00:45:39.081Z,20.40
2018-02-08T00:48:08.897Z,19.08
2018-02-08T00:50:38.733Z,19.40
2018-02-08T00:53:08.872Z,18.70
2018-02-08T00:55:38.723Z,20.30
2018-02-08T00:58:08.534Z,20.33
2018-02-08T01:00:38.216Z,20.95
2018-02-08T01:03:08.040Z,20.25
2018-02-08T01:05:37.912Z,19.30
2018-02-08T01:08:07.744Z,19.50
2018-02-08T01:10:37.585Z,19.67
2018-02-08T01:13:07.408Z,17.90
2018-02-08T01:15:37.222Z,19.30
2018-02-08T01:18:07.033Z,19.40
2018-02-08T01:20:36.609Z,19.60
2018-02-08T01:23:06.435Z,19.30
2018-02-08T01:25:36.283Z,21.10
2018-02-08T01:28:06.177Z,20.62
2018-02-08T01:30:36.004Z,21.65
2018-02-08T01:33:05.816Z,20.12
2018-02-08T01:35:35.637Z,22.17
2018-02-08T01:38:05.441Z,20.92
2018-02-08T01:40:35.288Z,21.62
2018-02-08T01:43:05.127Z,21.67
2018-02-08T01:45:34.945Z,22.70
2018-02-08T01:48:04.753Z,22.40
2018-02-08T01:50:34.781Z,22.60
2018-02-08T01:53:04.636Z,22.02
2018-02-08T01:55:34.460Z,25.62
2018-02-08T01:58:04.290Z,23.80
2018-02-08T02:00:34.141Z,22.98
2018-02-08T02:03:03.965Z,22.70
2018-02-08T02:05:33.788Z,22.73
2018-02-08T02:08:03.614Z,23.87
2018-02-08T02:10:33.438Z,23.85
2018-02-08T02:13:02.946Z,24.75
2018-02-08T02:15:32.803Z,23.33
2018-02-08T02:18:02.604Z,24.08
2018-02-08T02:20:32.437Z,23.48
2018-02-08T02:23:02.269Z,23.70
2018-02-08T02:25:32.123Z,21.92
2018-02-08T02:28:02.139Z,22.60
2018-02-08T02:30:32.001Z,22.85
2018-02-08T02:33:01.824Z,22.83
2018-02-08T02:35:31.654Z,23.15
2018-02-08T02:38:01.471Z,21.15
2018-02-08T02:40:31.275Z,23.38
2018-02-08T02:43:01.090Z,22.10
2018-02-08T02:45:30.962Z,22.00
2018-02-08T02:48:01.175Z,24.42
2018-02-08T02:50:31.720Z,23.50
2018-02-08T02:53:01.893Z,22.90
2018-02-08T02:55:31.736Z,23.08
2018-02-08T02:58:01.562Z,23.55
2018-02-08T03:00:31.401Z,24.45
2018-02-08T03:03:01.204Z,20.75
2018-02-08T03:05:31.769Z,22.13
2018-02-08T03:08:01.590Z,22.90
2018-02-08T03:10:31.442Z,22.58
2018-02-08T03:13:01.275Z,22.87
2018-02-08T03:15:31.124Z,21.42
2018-02-08T03:18:00.670Z,21.52
2018-02-08T03:20:30.514Z,23.92
2018-02-08T03:23:00.123Z,21.75
2018-02-08T03:25:29.984Z,22.67
2018-02-08T03:27:59.819Z,22.52
2018-02-08T03:30:30.366Z,22.20
2018-02-08T03:33:00.196Z,21.58
2018-02-08T03:35:30.017Z,23.98
2018-02-08T03:37:59.826Z,22.13
2018-02-08T03:40:29.655Z,23.33
2018-02-08T03:42:59.510Z,22.52
2018-02-08T03:45:29.331Z,23.73
2018-02-08T03:47:59.163Z,25.77
2018-02-08T03:50:29.002Z,21.87
2018-02-08T03:52:58.819Z,22.42
2018-02-08T03:55:28.684Z,25.05
2018-02-08T03:57:58.494Z,24.12
2018-02-08T04:00:28.345Z,23.77
2018-02-08T04:02:58.188Z,23.95
2018-02-08T04:05:28.010Z,24.98
2018-02-08T04:07:57.841Z,25.30
2018-02-08T04:10:27.681Z,25.35
2018-02-08T04:12:57.482Z,25.65
2018-02-08T04:15:27.313Z,23.92
2018-02-08T04:17:57.119Z,25.95
2018-02-08T04:20:27.423Z,25.42
2018-02-08T04:22:57.248Z,26.20
2018-02-08T04:25:27.053Z,27.20
2018-02-08T04:27:56.871Z,25.90
2018-02-08T04:30:26.752Z,23.98
2018-02-08T04:32:56.563Z,25.92
2018-02-08T04:35:26.405Z,27.52
2018-02-08T04:37:56.224Z,29.00
2018-02-08T04:40:36.966Z,27.20
2018-02-08T04:43:17.773Z,26.65
2018-02-08T04:45:58.469Z,27.40
2018-02-08T04:48:28.045Z,30.00
2018-02-08T04:50:57.590Z,27.23
2018-02-08T04:53:27.421Z,27.42
2018-02-08T04:55:57.243Z,29.77
2018-02-08T04:58:27.089Z,28.67
2018-02-08T05:00:56.904Z,27.45
2018-02-08T05:03:26.734Z,28.62
2018-02-08T05:05:56.554Z,27.62
2018-02-08T05:08:26.372Z,30.65
2018-02-08T05:10:56.305Z,30.90
2018-02-08T05:13:26.178Z,29.45
2018-02-08T05:15:56.110Z,30.02
2018-02-08T05:18:25.932Z,27.75
2018-02-08T05:20:55.737Z,29.05
2018-02-08T05:23:30.052Z,30.02
2018-02-08T05:26:00.166Z,29.15
2018-02-08T05:28:30.019Z,30.75
2018-02-08T05:31:00.050Z,30.75
2018-02-08T05:33:29.904Z,32.83
2018-02-08T05:35:59.768Z,30.42
2018-02-08T05:38:29.604Z,31.17
2018-02-08T05:40:59.481Z,27.62
2018-02-08T05:43:29.292Z,28.73
2018-02-08T05:45:59.220Z,28.92
2018-02-08T05:48:29.140Z,30.20
2018-02-08T05:50:59.028Z,29.23
2018-02-08T05:53:28.872Z,29.10
2018-02-08T05:55:58.750Z,30.90
2018-02-08T05:58:29.386Z,30.77
2018-02-08T06:00:59.198Z,30.58
2018-02-08T06:03:29.560Z,30.50
2018-02-08T06:05:59.456Z,30.35
2018-02-08T06:08:29.863Z,30.02
2018-02-08T06:10:59.728Z,28.73
2018-02-08T06:13:32.150Z,30.12
2018-02-08T06:16:03.151Z,28.62
2018-02-08T06:18:33.175Z,28.55
2018-02-08T06:21:03.289Z,29.15
2018-02-08T06:23:33.026Z,29.50
2018-02-08T06:26:02.862Z,28.42
2018-02-08T06:28:34.390Z,27.92
2018-02-08T06:31:05.351Z,27.80
2018-02-08T06:33:35.327Z,29.65
2018-02-08T06:38:59.810Z,29.17
2018-02-08T06:41:31.836Z,29.73
2018-02-08T06:44:04.582Z,27.15
2018-02-08T06:46:35.650Z,27.08
2018-02-08T06:49:06.323Z,28.12
2018-02-08T06:51:37.203Z,28.90
2018-02-08T06:56:42.151Z,28.12
2018-02-08T07:01:47.487Z,28.77
2018-02-08T07:04:17.585Z,27.45
2018-02-08T07:06:47.650Z,26.95
2018-02-08T07:12:54.233Z,25.65
2018-02-08T07:15:24.137Z,28.10
2018-02-08T07:17:53.823Z,28.60
2018-02-08T07:20:24.259Z,26.83
2018-02-08T07:22:54.150Z,28.42
2018-02-08T07:25:23.769Z,26.98
2018-02-08T07:27:53.735Z,29.23
2018-02-08T07:30:23.662Z,27.95
2018-02-08T07:32:57.666Z,27.27
2018-02-08T07:35:28.406Z,25.52
2018-02-08T07:37:58.515Z,27.83
2018-02-08T07:40:28.542Z,26.98
2018-02-08T07:42:59.368Z,27.58
2018-02-08T07:45:29.315Z,26.73
2018-02-08T07:48:00.446Z,27.05
2018-02-08T07:50:30.217Z,27.05
2018-02-08T07:53:00.044Z,26.98
2018-02-08T07:55:30.054Z,25.88
2018-02-08T07:58:00.333Z,26.85
2018-02-08T08:00:30.334Z,26.10
2018-02-08T08:03:00.375Z,26.42
2018-02-08T08:05:30.366Z,28.45
2018-02-08T08:08:00.277Z,26.83
2018-02-08T08:10:30.195Z,25.83
2018-02-08T08:13:00.172Z,26.25
2018-02-08T08:15:30.172Z,26.33
2018-02-08T08:18:00.137Z,27.33
2018-02-08T08:20:30.193Z,29.48
2018-02-08T08:25:37.693Z,25.50
2018-02-08T08:28:07.615Z,26.15
2018-02-08T08:30:37.558Z,25.48
2018-02-08T08:33:08.146Z,28.83
2018-02-08T08:35:38.073Z,28.30
2018-02-08T08:38:13.044Z,26.87
2018-02-08T08:41:08.537Z,28.30
2018-02-08T08:43:43.858Z,27.80
2018-02-08T08:48:57.798Z,27.65
2018-02-08T08:51:27.780Z,28.20
2018-02-08T08:53:57.799Z,27.73
2018-02-08T08:56:27.766Z,28.60
2018-02-08T08:58:57.994Z,28.33
2018-02-08T09:01:28.038Z,27.70
2018-02-08T09:04:02.120Z,27.00
2018-02-08T09:06:33.438Z,26.08
2018-02-08T09:09:03.155Z,27.70
2018-02-08T09:16:43.549Z,26.02
2018-02-08T09:19:15.504Z,27.60
2018-02-08T09:24:18.964Z,25.77
2018-02-08T09:26:48.866Z,28.00
2018-02-08T09:29:18.865Z,26.27
2018-02-08T09:31:48.720Z,25.40
2018-02-08T09:34:18.610Z,27.33
2018-02-08T09:36:48.523Z,26.02
2018-02-08T09:39:18.473Z,26.40
2018-02-08T09:41:49.037Z,26.98
2018-02-08T09:44:20.285Z,26.00
2018-02-08T09:46:50.161Z,25.50
2018-02-08T09:49:20.372Z,26.12
2018-02-08T09:51:50.546Z,25.98
2018-02-08T09:54:21.081Z,27.08
2018-02-08T09:56:50.996Z,27.00
2018-02-08T09:59:21.115Z,25.98
2018-02-08T10:01:52.324Z,24.85
2018-02-08T10:04:22.336Z,26.80
2018-02-08T10:06:53.239Z,26.55
2018-02-08T10:09:23.198Z,25.62
2018-02-08T10:11:52.904Z,26.02
2018-02-08T10:14:22.835Z,27.40
2018-02-08T10:16:53.238Z,26.27
2018-02-08T10:19:23.154Z,27.40
2018-02-08T10:21:54.650Z,25.77
2018-02-08T10:24:26.585Z,26.65
2018-02-08T10:26:56.444Z,26.27
2018-02-08T10:29:26.441Z,24.50
2018-02-08T10:31:57.860Z,25.23
2018-02-08T10:34:27.818Z,25.55
2018-02-08T10:36:57.904Z,25.23
2018-02-08T10:39:27.804Z,26.77
2018-02-08T10:44:34.909Z,26.50
2018-02-08T10:47:04.671Z,23.92
2018-02-08T10:49:35.451Z,26.52
2018-02-08T10:52:10.465Z,25.60
2018-02-08T10:54:40.513Z,25.33
2018-02-08T10:57:10.582Z,25.00
2018-02-08T10:59:41.636Z,25.17
2018-02-08T11:02:12.783Z,24.85
2018-02-08T11:04:53.050Z,24.05
2018-02-08T11:07:23.815Z,26.67
2018-02-08T11:20:26.061Z,23.05
2018-02-08T11:22:56.118Z,23.95
2018-02-08T11:25:27.044Z,24.08
2018-02-08T11:28:00.295Z,26.42
2018-02-08T11:33:31.326Z,25.45
2018-02-08T11:36:01.709Z,25.15
2018-02-08T11:38:32.470Z,24.73
2018-02-08T11:41:10.684Z,28.20
2018-02-08T11:43:48.374Z,27.37
2018-02-08T11:46:21.769Z,26.77
2018-02-08T11:59:35.588Z,22.20
2018-02-08T12:02:05.880Z,27.80
2018-02-08T12:37:54.753Z,25.10
2018-02-08T13:03:36.628Z,23.35
2018-02-08T13:08:51.613Z,23.80
2018-02-08T13:11:24.280Z,23.30
2018-02-08T13:30:52.826Z,25.42
2018-02-08T13:39:18.609Z,25.50
2018-02-08T13:42:37.361Z,25.67
2018-02-08T13:47:54.432Z,25.27
2018-02-08T13:50:46.470Z,24.70
2018-02-08T13:53:21.700Z,25.00
2018-02-08T13:58:56.462Z,24.73
2018-02-08T14:04:06.671Z,25.80
2018-02-08T14:06:43.273Z,24.45
2018-02-08T14:09:13.659Z,26.50
2018-02-08T14:19:46.929Z,23.70
2018-02-08T14:22:16.873Z,24.90
2018-02-08T14:24:47.399Z,26.35
2018-02-08T14:27:17.883Z,24.30
2018-02-08T14:29:47.901Z,25.30
2018-02-08T14:32:17.642Z,25.70
2018-02-08T14:34:47.615Z,26.23
2018-02-08T14:37:18.664Z,24.55
2018-02-08T14:39:49.271Z,25.55
2018-02-08T14:42:19.477Z,26.30
2018-02-08T14:44:49.369Z,25.50
2018-02-08T14:47:19.713Z,24.92
2018-02-08T14:49:49.689Z,26.02
2018-02-08T14:52:19.742Z,26.42
2018-02-08T14:54:49.757Z,25.05
2018-02-08T14:57:20.173Z,25.45
2018-02-08T14:59:50.545Z,23.85
2018-02-08T15:02:21.355Z,26.67
2018-02-08T15:04:51.428Z,27.08
2018-02-08T15:07:21.865Z,27.23
2018-02-08T15:09:52.038Z,26.87
2018-02-08T15:12:22.061Z,25.33
2018-02-08T15:14:51.995Z,25.10
2018-02-08T15:17:24.723Z,25.77
2018-02-08T15:19:55.637Z,25.30
2018-02-08T15:22:25.997Z,26.27
2018-02-08T15:24:55.778Z,25.62
2018-02-08T15:27:27.733Z,23.95
2018-02-08T15:30:00.214Z,25.85
2018-02-08T15:32:30.236Z,28.75
2018-02-08T15:34:59.868Z,35.03
2018-02-08T15:37:29.772Z,27.20
2018-02-08T15:40:00.806Z,29.05
2018-02-08T15:42:30.526Z,26.95
2018-02-08T15:45:01.864Z,26.73
2018-02-08T15:47:32.919Z,29.55
2018-02-08T15:50:03.128Z,26.30
2018-02-08T15:52:33.383Z,26.15
2018-02-08T15:55:06.750Z,26.08
2018-02-08T15:57:38.543Z,28.85
2018-02-08T16:00:08.663Z,26.20
2018-02-08T16:02:38.752Z,27.15
2018-02-08T16:05:10.099Z,26.50
2018-02-08T16:07:40.381Z,26.33
2018-02-08T16:10:12.164Z,26.83
2018-02-08T16:12:44.460Z,25.88
2018-02-08T16:15:15.290Z,26.50
2018-02-08T16:17:47.029Z,25.40
2018-02-08T16:20:18.618Z,24.67
2018-02-08T16:22:48.570Z,26.67
2018-02-08T16:25:18.625Z,25.65
2018-02-08T16:27:48.594Z,25.67
2018-02-08T16:30:18.420Z,26.55
2018-02-08T16:32:48.341Z,27.25
2018-02-08T16:35:18.383Z,29.48
2018-02-08T16:37:48.200Z,26.73
2018-02-08T16:40:18.213Z,24.95
2018-02-08T16:42:47.812Z,26.20
2018-02-08T16:45:17.861Z,25.12
2018-02-08T16:47:47.711Z,26.80
2018-02-08T16:50:18.197Z,26.48
2018-02-08T16:52:48.074Z,24.63
2018-02-08T16:55:17.975Z,26.17
2018-02-08T16:57:48.179Z,26.37
2018-02-08T17:00:18.004Z,25.08
2018-02-08T17:02:47.922Z,27.30
2018-02-08T17:05:17.951Z,26.73
2018-02-08T17:07:47.894Z,26.55
2018-02-08T17:10:21.370Z,25.02
2018-02-08T17:12:51.661Z,24.48
2018-02-08T17:15:21.637Z,27.15
2018-02-08T17:17:51.509Z,24.75
2018-02-08T17:20:21.317Z,26.50
2018-02-08T17:22:51.180Z,27.48
2018-02-08T17:25:21.136Z,26.10
2018-02-08T17:27:51.419Z,26.70
2018-02-08T17:30:21.242Z,28.15
2018-02-08T17:32:51.135Z,27.45
2018-02-08T17:35:21.027Z,25.33
2018-02-08T17:37:50.963Z,27.15
2018-02-08T17:40:24.061Z,26.70
2018-02-08T17:42:53.595Z,27.08
2018-02-08T17:45:23.404Z,27.02
2018-02-08T17:47:53.525Z,26.27
2018-02-08T17:50:23.419Z,26.35
2018-02-08T17:52:53.207Z,27.23
2018-02-08T17:55:23.015Z,29.30
2018-02-08T17:57:52.875Z,25.60
2018-02-08T18:00:23.643Z,27.37
2018-02-08T18:02:53.586Z,28.15
2018-02-08T18:05:23.496Z,27.80
2018-02-08T18:07:57.297Z,26.00
2018-02-08T18:10:27.308Z,25.60
2018-02-08T18:12:57.357Z,27.23
2018-02-08T18:15:27.527Z,26.73
2018-02-08T18:17:57.464Z,26.85
2018-02-08T18:20:27.489Z,26.17
2018-02-08T18:22:57.339Z,27.25
2018-02-08T18:25:27.244Z,28.83
2018-02-08T18:27:56.836Z,27.10
2018-02-08T18:30:26.649Z,29.52
2018-02-08T18:32:56.541Z,27.40
2018-02-08T18:35:27.439Z,27.90
2018-02-08T18:37:57.699Z,27.90
2018-02-08T18:40:27.564Z,28.05
2018-02-08T18:42:57.675Z,29.10
2018-02-08T18:45:27.911Z,27.30
2018-02-08T18:47:57.919Z,26.95
2018-02-08T18:50:27.809Z,27.17
2018-02-08T18:52:58.643Z,28.23
2018-02-08T18:55:28.719Z,26.10
2018-02-08T18:57:58.805Z,26.65
2018-02-08T19:00:28.661Z,28.95
2018-02-08T19:02:58.569Z,28.40
2018-02-08T19:05:30.332Z,29.65
2018-02-08T19:08:00.278Z,27.00
2018-02-08T19:10:30.123Z,27.58
2018-02-08T19:13:00.255Z,27.67
2018-02-08T19:15:30.122Z,27.87
2018-02-08T19:18:00.018Z,28.02
2018-02-08T19:20:30.492Z,28.55
2018-02-08T19:23:01.802Z,27.90
2018-02-08T19:25:33.476Z,26.83
2018-02-08T19:28:03.423Z,25.85
2018-02-08T19:30:33.343Z,29.60
2018-02-08T19:33:03.687Z,29.02
2018-02-08T19:35:34.395Z,25.62
2018-02-08T19:38:04.306Z,26.08
2018-02-08T19:40:34.214Z,25.80
2018-02-08T19:43:04.802Z,26.65
2018-02-08T19:45:38.127Z,26.40
2018-02-08T19:48:08.268Z,27.58
2018-02-08T19:50:38.163Z,27.83
2018-02-08T19:53:08.139Z,30.20
2018-02-08T19:55:37.693Z,28.98
2018-02-08T19:58:07.720Z,29.77
2018-02-08T20:00:37.858Z,27.40
2018-02-08T20:03:08.103Z,27.77
2018-02-08T20:05:38.385Z,29.02
2018-02-08T20:08:08.506Z,26.58
2018-02-08T20:10:38.606Z,27.52
2018-02-08T20:13:08.655Z,27.90
2018-02-08T20:15:38.941Z,29.27
2018-02-08T20:18:09.020Z,28.87
2018-02-08T20:20:39.059Z,26.55
2018-02-08T20:23:09.953Z,27.75
2018-02-08T20:25:43.010Z,29.40
2018-02-08T20:28:12.962Z,25.23
2018-02-08T20:30:49.260Z,28.42
2018-02-08T20:33:23.092Z,26.75
2018-02-08T20:35:53.208Z,27.27
2018-02-08T20:38:24.510Z,29.10
2018-02-08T20:40:54.848Z,28.87
2018-02-08T20:43:33.944Z,29.77
2018-02-08T20:46:03.924Z,27.73
2018-02-08T20:48:33.723Z,28.87
2018-02-08T20:51:03.752Z,27.48
2018-02-08T20:53:33.788Z,27.13
2018-02-08T20:56:03.887Z,30.65
2018-02-08T20:58:33.856Z,28.77
2018-02-08T21:01:03.916Z,29.25
2018-02-08T21:03:33.912Z,30.73
2018-02-08T21:06:04.223Z,27.33
2018-02-08T21:08:34.411Z,29.92
2018-02-08T21:11:04.496Z,30.92
2018-02-08T21:13:34.646Z,30.73
2018-02-08T21:16:04.789Z,29.37
2018-02-08T21:18:34.954Z,29.25
2018-02-08T21:21:04.974Z,28.23
2018-02-08T21:23:34.861Z,30.05
2018-02-08T21:26:04.876Z,28.85
2018-02-08T21:28:34.727Z,30.48
2018-02-08T21:31:04.566Z,29.30
2018-02-08T21:33:34.368Z,27.95
2018-02-08T21:36:04.214Z,29.87
2018-02-08T21:38:33.747Z,28.67
2018-02-08T21:41:03.786Z,30.37
2018-02-08T21:43:33.684Z,28.35
2018-02-08T21:46:03.520Z,29.33
2018-02-08T21:48:33.001Z,28.38
2018-02-08T21:51:02.867Z,27.50
2018-02-08T21:53:32.479Z,27.30
2018-02-08T21:56:02.326Z,29.42
2018-02-08T21:58:32.118Z,28.38
2018-02-08T22:01:01.950Z,29.85
2018-02-08T22:03:31.798Z,28.87
2018-02-08T22:06:01.649Z,29.12
2018-02-08T22:08:31.474Z,27.55
2018-02-08T22:11:01.355Z,30.88
2018-02-08T22:13:31.342Z,29.12
2018-02-08T22:16:01.323Z,27.92
2018-02-08T22:18:31.256Z,29.20
2018-02-08T22:21:01.845Z,29.80
2018-02-08T22:23:31.743Z,30.73
2018-02-08T22:26:01.865Z,28.42
2018-02-08T22:28:31.914Z,28.40
2018-02-08T22:31:01.778Z,28.25
2018-02-08T22:33:31.648Z,28.48
2018-02-08T22:36:01.558Z,27.27
2018-02-08T22:38:31.751Z,27.50
2018-02-08T22:41:01.590Z,29.20
2018-02-08T22:43:32.201Z,28.27
2018-02-08T22:46:02.060Z,29.50
2018-02-08T22:48:32.183Z,27.23
2018-02-08T22:51:03.045Z,28.48
2018-02-08T22:53:32.975Z,25.85
2018-02-08T22:56:02.991Z,28.52
2018-02-08T22:58:32.952Z,28.42
2018-02-08T23:01:02.692Z,26.70
2018-02-08T23:03:32.496Z,29.42
2018-02-08T23:06:02.545Z,26.77
2018-02-08T23:08:32.412Z,27.85
2018-02-08T23:11:02.501Z,28.12
2018-02-08T23:13:32.369Z,26.40
2018-02-08T23:16:02.222Z,25.75
2018-02-08T23:18:32.077Z,30.50
2018-02-08T23:21:01.897Z,27.02
2018-02-08T23:23:33.939Z,27.27
2018-02-08T23:26:04.175Z,26.67
2018-02-08T23:28:34.230Z,29.02
2018-02-08T23:31:04.178Z,26.95
2018-02-08T23:33:34.056Z,28.35
2018-02-08T23:36:03.907Z,27.58
2018-02-08T23:38:33.760Z,27.95
2018-02-08T23:41:05.666Z,28.20
2018-02-08T23:43:38.669Z,28.20
2018-02-08T23:46:09.049Z,29.40
2018-02-08T23:48:38.976Z,28.00
2018-02-08T23:51:08.840Z,26.48
2018-02-08T23:53:38.676Z,25.30
2018-02-08T23:56:08.532Z,26.60
2018-02-08T23:58:38.399Z,31.50
